sensor_id;sensor_type;location;lat;lon;timestamp;temperature;humidity
77277;DHT22;66330;52.166;9.978;2023-11-19T10:48:12;13.50;77.00
77277;DHT22;66330;52.166;9.978;2023-11-19T10:50:40;13.60;79.20
77277;DHT22;66330;52.166;9.978;2023-11-19T10:53:07;12.90;80.30
77277;DHT22;66330;52.166;9.978;2023-11-19T10:55:35;13.40;82.40
77277;DHT22;66330;52.166;9.978;2023-11-19T10:58:07;13.30;83.70
77277;DHT22;66330;52.166;9.978;2023-11-19T11:00:47;13.50;84.70
77277;DHT22;66330;52.166;9.978;2023-11-19T11:03:18;14.00;84.90
77277;DHT22;66330;52.166;9.978;2023-11-19T11:05:47;15.40;83.60
77277;DHT22;66330;52.166;9.978;2023-11-19T11:08:13;15.50;80.40
77277;DHT22;66330;52.166;9.978;2023-11-19T11:10:56;16.20;80.30
77277;DHT22;66330;52.166;9.978;2023-11-19T11:13:23;16.60;79.00
77277;DHT22;66330;52.166;9.978;2023-11-19T11:15:50;17.80;78.50
77277;DHT22;66330;52.166;9.978;2023-11-19T11:18:16;18.40;77.00
77277;DHT22;66330;52.166;9.978;2023-11-19T11:20:45;19.10;71.80
77277;DHT22;66330;52.166;9.978;2023-11-19T11:28:34;20.20;65.70
77277;DHT22;66330;52.166;9.978;2023-11-19T11:31:06;20.50;65.10
77277;DHT22;66330;52.166;9.978;2023-11-19T11:34:04;20.80;64.30
77277;DHT22;66330;52.166;9.978;2023-11-19T11:36:43;21.30;64.30
77277;DHT22;66330;52.166;9.978;2023-11-19T11:39:12;21.80;65.00
77277;DHT22;66330;52.166;9.978;2023-11-19T11:41:38;22.00;61.60
77277;DHT22;66330;52.166;9.978;2023-11-19T11:44:04;21.90;58.80
77277;DHT22;66330;52.166;9.978;2023-11-19T11:49:08;21.70;58.30
77277;DHT22;66330;52.166;9.978;2023-11-19T12:02:04;20.80;56.80
77277;DHT22;66330;52.166;9.978;2023-11-19T12:04:30;20.60;57.50
77277;DHT22;66330;52.166;9.978;2023-11-19T12:07:05;20.50;57.10
77277;DHT22;66330;52.166;9.978;2023-11-19T12:09:32;20.60;57.40
77277;DHT22;66330;52.166;9.978;2023-11-19T12:12:20;20.50;56.40
77277;DHT22;66330;52.166;9.978;2023-11-19T12:20:05;19.80;56.40
77277;DHT22;66330;52.166;9.978;2023-11-19T12:22:36;19.80;56.90
77277;DHT22;66330;52.166;9.978;2023-11-19T12:25:02;19.90;57.20
77277;DHT22;66330;52.166;9.978;2023-11-19T12:27:29;19.90;56.00
77277;DHT22;66330;52.166;9.978;2023-11-19T12:29:55;19.80;54.80
77277;DHT22;66330;52.166;9.978;2023-11-19T12:32:22;19.40;56.00
77277;DHT22;66330;52.166;9.978;2023-11-19T12:34:50;19.10;56.50
77277;DHT22;66330;52.166;9.978;2023-11-19T12:37:15;18.70;56.90
77277;DHT22;66330;52.166;9.978;2023-11-19T12:39:41;18.30;57.50
77277;DHT22;66330;52.166;9.978;2023-11-19T12:42:07;18.00;57.60
77277;DHT22;66330;52.166;9.978;2023-11-19T12:44:32;17.60;57.90
77277;DHT22;66330;52.166;9.978;2023-11-19T12:47:03;17.50;58.50
77277;DHT22;66330;52.166;9.978;2023-11-19T12:49:30;17.00;58.70
77277;DHT22;66330;52.166;9.978;2023-11-19T12:51:55;17.20;59.30
77277;DHT22;66330;52.166;9.978;2023-11-19T12:54:32;16.70;59.30
77277;DHT22;66330;52.166;9.978;2023-11-19T12:56:58;16.70;59.70
77277;DHT22;66330;52.166;9.978;2023-11-19T12:59:24;17.00;60.30
77277;DHT22;66330;52.166;9.978;2023-11-19T13:01:59;17.00;60.60
77277;DHT22;66330;52.166;9.978;2023-11-19T13:04:29;16.60;60.50
77277;DHT22;66330;52.166;9.978;2023-11-19T13:06:57;16.70;60.50
77277;DHT22;66330;52.166;9.978;2023-11-19T13:09:27;16.50;60.30
77277;DHT22;66330;52.166;9.978;2023-11-19T13:11:53;16.00;60.10
77277;DHT22;66330;52.166;9.978;2023-11-19T13:14:19;16.10;61.10
77277;DHT22;66330;52.166;9.978;2023-11-19T13:16:45;15.70;61.50
77277;DHT22;66330;52.166;9.978;2023-11-19T13:19:13;15.30;61.80
77277;DHT22;66330;52.166;9.978;2023-11-19T13:21:38;15.20;62.50
77277;DHT22;66330;52.166;9.978;2023-11-19T13:24:06;15.10;63.10
77277;DHT22;66330;52.166;9.978;2023-11-19T13:26:32;14.80;63.30
77277;DHT22;66330;52.166;9.978;2023-11-19T13:28:57;15.30;64.50
77277;DHT22;66330;52.166;9.978;2023-11-19T13:31:23;15.10;64.80
77277;DHT22;66330;52.166;9.978;2023-11-19T13:33:48;14.70;64.80
77277;DHT22;66330;52.166;9.978;2023-11-19T13:36:14;14.90;65.50
77277;DHT22;66330;52.166;9.978;2023-11-19T13:38:40;14.70;65.90
77277;DHT22;66330;52.166;9.978;2023-11-19T13:41:07;14.80;66.30
77277;DHT22;66330;52.166;9.978;2023-11-19T13:43:35;14.70;66.50
77277;DHT22;66330;52.166;9.978;2023-11-19T13:46:01;14.50;66.60
77277;DHT22;66330;52.166;9.978;2023-11-19T13:48:26;14.70;67.10
77277;DHT22;66330;52.166;9.978;2023-11-19T13:50:54;14.80;67.50
77277;DHT22;66330;52.166;9.978;2023-11-19T13:53:20;15.00;67.50
77277;DHT22;66330;52.166;9.978;2023-11-19T13:55:46;14.80;67.70
77277;DHT22;66330;52.166;9.978;2023-11-19T13:58:12;14.50;67.30
77277;DHT22;66330;52.166;9.978;2023-11-19T14:00:38;15.00;68.20
77277;DHT22;66330;52.166;9.978;2023-11-19T14:03:04;15.00;68.20
77277;DHT22;66330;52.166;9.978;2023-11-19T14:05:30;15.20;68.40
77277;DHT22;66330;52.166;9.978;2023-11-19T14:07:55;14.60;67.90
77277;DHT22;66330;52.166;9.978;2023-11-19T14:10:22;14.50;67.80
77277;DHT22;66330;52.166;9.978;2023-11-19T14:12:48;14.60;67.80
77277;DHT22;66330;52.166;9.978;2023-11-19T14:15:15;14.90;68.10
77277;DHT22;66330;52.166;9.978;2023-11-19T14:17:43;15.00;68.50
77277;DHT22;66330;52.166;9.978;2023-11-19T14:20:09;14.50;68.20
77277;DHT22;66330;52.166;9.978;2023-11-19T14:22:43;14.50;68.10
77277;DHT22;66330;52.166;9.978;2023-11-19T14:25:10;14.60;68.50
77277;DHT22;66330;52.166;9.978;2023-11-19T14:27:37;14.70;68.80
77277;DHT22;66330;52.166;9.978;2023-11-19T14:30:05;14.30;68.40
77277;DHT22;66330;52.166;9.978;2023-11-19T14:32:31;14.30;68.60
77277;DHT22;66330;52.166;9.978;2023-11-19T14:34:57;14.40;69.60
77277;DHT22;66330;52.166;9.978;2023-11-19T14:37:22;14.20;68.60
77277;DHT22;66330;52.166;9.978;2023-11-19T14:39:48;14.70;69.20
77277;DHT22;66330;52.166;9.978;2023-11-19T14:42:16;14.70;69.40
77277;DHT22;66330;52.166;9.978;2023-11-19T14:44:42;14.60;69.30
77277;DHT22;66330;52.166;9.978;2023-11-19T14:47:07;14.60;69.40
77277;DHT22;66330;52.166;9.978;2023-11-19T14:49:35;14.60;69.50
77277;DHT22;66330;52.166;9.978;2023-11-19T14:52:02;14.50;69.40
77277;DHT22;66330;52.166;9.978;2023-11-19T14:54:28;14.10;69.00
77277;DHT22;66330;52.166;9.978;2023-11-19T14:56:54;14.20;69.30
77277;DHT22;66330;52.166;9.978;2023-11-19T14:59:19;14.30;69.80
77277;DHT22;66330;52.166;9.978;2023-11-19T15:01:45;13.60;69.40
77277;DHT22;66330;52.166;9.978;2023-11-19T15:04:11;14.20;70.30
77277;DHT22;66330;52.166;9.978;2023-11-19T15:06:37;14.10;70.50
77277;DHT22;66330;52.166;9.978;2023-11-19T15:09:04;14.10;70.70
77277;DHT22;66330;52.166;9.978;2023-11-19T15:11:29;13.50;70.30
77277;DHT22;66330;52.166;9.978;2023-11-19T15:13:55;13.90;70.90
77277;DHT22;66330;52.166;9.978;2023-11-19T15:16:21;13.50;70.50
77277;DHT22;66330;52.166;9.978;2023-11-19T15:18:57;14.00;71.20
77277;DHT22;66330;52.166;9.978;2023-11-19T15:21:25;13.90;71.10
77277;DHT22;66330;52.166;9.978;2023-11-19T15:23:51;14.00;71.10
77277;DHT22;66330;52.166;9.978;2023-11-19T15:26:17;14.00;71.00
77277;DHT22;66330;52.166;9.978;2023-11-19T15:28:43;14.00;71.10
77277;DHT22;66330;52.166;9.978;2023-11-19T15:31:09;14.00;71.10
77277;DHT22;66330;52.166;9.978;2023-11-19T15:33:35;14.10;71.20
77277;DHT22;66330;52.166;9.978;2023-11-19T15:36:01;14.00;71.10
77277;DHT22;66330;52.166;9.978;2023-11-19T15:38:28;14.00;71.10
77277;DHT22;66330;52.166;9.978;2023-11-19T15:40:54;13.60;70.60
77277;DHT22;66330;52.166;9.978;2023-11-19T15:43:20;14.10;70.80
77277;DHT22;66330;52.166;9.978;2023-11-19T15:45:46;14.30;71.30
77277;DHT22;66330;52.166;9.978;2023-11-19T15:48:11;14.20;71.10
77277;DHT22;66330;52.166;9.978;2023-11-19T15:50:39;14.10;71.20
77277;DHT22;66330;52.166;9.978;2023-11-19T15:53:04;13.60;70.70
77277;DHT22;66330;52.166;9.978;2023-11-19T15:55:30;14.20;71.50
77277;DHT22;66330;52.166;9.978;2023-11-19T15:57:56;13.50;71.70
77277;DHT22;66330;52.166;9.978;2023-11-19T16:00:22;14.00;71.50
77277;DHT22;66330;52.166;9.978;2023-11-19T16:02:50;13.90;71.50
77277;DHT22;66330;52.166;9.978;2023-11-19T16:05:16;14.20;71.90
77277;DHT22;66330;52.166;9.978;2023-11-19T16:07:42;14.10;71.80
77277;DHT22;66330;52.166;9.978;2023-11-19T16:10:08;13.80;71.50
77277;DHT22;66330;52.166;9.978;2023-11-19T16:12:35;13.50;71.20
77277;DHT22;66330;52.166;9.978;2023-11-19T16:15:01;13.90;71.60
77277;DHT22;66330;52.166;9.978;2023-11-19T16:17:26;13.50;71.20
77277;DHT22;66330;52.166;9.978;2023-11-19T16:19:54;14.10;71.80
77277;DHT22;66330;52.166;9.978;2023-11-19T16:22:20;13.60;71.20
77277;DHT22;66330;52.166;9.978;2023-11-19T16:24:46;14.10;71.70
77277;DHT22;66330;52.166;9.978;2023-11-19T16:27:14;13.90;71.40
77277;DHT22;66330;52.166;9.978;2023-11-19T16:29:40;14.00;71.00
77277;DHT22;66330;52.166;9.978;2023-11-19T16:32:06;13.90;71.30
77277;DHT22;66330;52.166;9.978;2023-11-19T16:34:32;13.70;71.20
77277;DHT22;66330;52.166;9.978;2023-11-19T16:37:03;14.00;71.60
77277;DHT22;66330;52.166;9.978;2023-11-19T16:39:31;13.40;71.10
77277;DHT22;66330;52.166;9.978;2023-11-19T16:41:57;13.90;72.00
77277;DHT22;66330;52.166;9.978;2023-11-19T16:44:22;13.30;71.50
77277;DHT22;66330;52.166;9.978;2023-11-19T16:46:48;13.30;71.60
77277;DHT22;66330;52.166;9.978;2023-11-19T16:49:14;13.60;72.00
77277;DHT22;66330;52.166;9.978;2023-11-19T16:51:39;13.60;72.20
77277;DHT22;66330;52.166;9.978;2023-11-19T16:54:05;13.80;72.40
77277;DHT22;66330;52.166;9.978;2023-11-19T16:56:30;13.30;71.90
77277;DHT22;66330;52.166;9.978;2023-11-19T16:58:59;13.90;72.60
77277;DHT22;66330;52.166;9.978;2023-11-19T17:01:25;13.70;72.30
77277;DHT22;66330;52.166;9.978;2023-11-19T17:03:51;13.70;72.30
77277;DHT22;66330;52.166;9.978;2023-11-19T17:06:16;13.90;72.40
77277;DHT22;66330;52.166;9.978;2023-11-19T17:08:42;13.90;72.30
77277;DHT22;66330;52.166;9.978;2023-11-19T17:11:08;14.00;72.30
77277;DHT22;66330;52.166;9.978;2023-11-19T17:13:34;13.70;71.80
77277;DHT22;66330;52.166;9.978;2023-11-19T17:16:00;14.20;72.00
77277;DHT22;66330;52.166;9.978;2023-11-19T17:18:26;13.90;71.90
77277;DHT22;66330;52.166;9.978;2023-11-19T17:20:52;13.90;72.00
77277;DHT22;66330;52.166;9.978;2023-11-19T17:23:19;13.90;72.00
77277;DHT22;66330;52.166;9.978;2023-11-19T17:25:45;13.90;72.00
77277;DHT22;66330;52.166;9.978;2023-11-19T17:28:11;13.50;71.60
77277;DHT22;66330;52.166;9.978;2023-11-19T17:30:37;13.90;72.00
77277;DHT22;66330;52.166;9.978;2023-11-19T17:33:04;14.00;72.10
77277;DHT22;66330;52.166;9.978;2023-11-19T17:35:33;14.00;72.20
77277;DHT22;66330;52.166;9.978;2023-11-19T17:37:59;14.10;72.40
77277;DHT22;66330;52.166;9.978;2023-11-19T17:40:25;14.00;72.30
77277;DHT22;66330;52.166;9.978;2023-11-19T17:42:53;13.70;72.30
77277;DHT22;66330;52.166;9.978;2023-11-19T17:45:19;13.70;72.60
77277;DHT22;66330;52.166;9.978;2023-11-19T17:47:45;13.20;72.50
77277;DHT22;66330;52.166;9.978;2023-11-19T17:50:11;13.10;72.70
77277;DHT22;66330;52.166;9.978;2023-11-19T17:52:37;13.60;73.70
77277;DHT22;66330;52.166;9.978;2023-11-19T17:55:03;13.30;73.60
77277;DHT22;66330;52.166;9.978;2023-11-19T17:57:32;12.90;73.40
77277;DHT22;66330;52.166;9.978;2023-11-19T17:59:57;13.20;74.10
77277;DHT22;66330;52.166;9.978;2023-11-19T18:02:23;13.40;74.60
77277;DHT22;66330;52.166;9.978;2023-11-19T18:04:49;13.40;74.80
77277;DHT22;66330;52.166;9.978;2023-11-19T18:07:16;12.90;74.50
77277;DHT22;66330;52.166;9.978;2023-11-19T18:09:45;13.30;75.10
77277;DHT22;66330;52.166;9.978;2023-11-19T18:12:11;13.10;75.00
77277;DHT22;66330;52.166;9.978;2023-11-19T18:14:37;13.40;75.30
77277;DHT22;66330;52.166;9.978;2023-11-19T18:17:04;13.60;75.50
77277;DHT22;66330;52.166;9.978;2023-11-19T18:19:29;13.60;75.40
77277;DHT22;66330;52.166;9.978;2023-11-19T18:21:56;13.50;75.20
77277;DHT22;66330;52.166;9.978;2023-11-19T18:24:23;13.00;74.70
77277;DHT22;66330;52.166;9.978;2023-11-19T18:26:49;13.50;75.50
77277;DHT22;66330;52.166;9.978;2023-11-19T18:29:15;13.20;75.30
77277;DHT22;66330;52.166;9.978;2023-11-19T18:31:45;13.40;75.80
77277;DHT22;66330;52.166;9.978;2023-11-19T18:34:11;13.30;76.00
77277;DHT22;66330;52.166;9.978;2023-11-19T18:36:37;13.00;75.90
77277;DHT22;66330;52.166;9.978;2023-11-19T18:39:04;13.30;76.50
77277;DHT22;66330;52.166;9.978;2023-11-19T18:41:30;12.70;76.10
77277;DHT22;66330;52.166;9.978;2023-11-19T18:43:56;13.20;76.90
77277;DHT22;66330;52.166;9.978;2023-11-19T18:46:22;12.60;76.40
77277;DHT22;66330;52.166;9.978;2023-11-19T18:48:47;13.20;77.20
77277;DHT22;66330;52.166;9.978;2023-11-19T18:51:13;13.10;76.70
77277;DHT22;66330;52.166;9.978;2023-11-19T18:53:40;13.10;77.20
77277;DHT22;66330;52.166;9.978;2023-11-19T18:56:08;13.30;77.50
77277;DHT22;66330;52.166;9.978;2023-11-19T18:58:33;13.10;77.20
77277;DHT22;66330;52.166;9.978;2023-11-19T19:01:00;13.20;77.30
77277;DHT22;66330;52.166;9.978;2023-11-19T19:03:25;13.40;78.30
77277;DHT22;66330;52.166;9.978;2023-11-19T19:05:59;13.40;77.60
77277;DHT22;66330;52.166;9.978;2023-11-19T19:08:24;12.70;76.90
77277;DHT22;66330;52.166;9.978;2023-11-19T19:10:50;13.10;77.50
77277;DHT22;66330;52.166;9.978;2023-11-19T19:13:16;13.00;77.50
77277;DHT22;66330;52.166;9.978;2023-11-19T19:15:41;13.20;77.70
77277;DHT22;66330;52.166;9.978;2023-11-19T19:18:07;13.00;77.50
77277;DHT22;66330;52.166;9.978;2023-11-19T19:20:33;13.10;77.60
77277;DHT22;66330;52.166;9.978;2023-11-19T19:22:59;13.10;77.60
77277;DHT22;66330;52.166;9.978;2023-11-19T19:25:25;13.40;77.90
77277;DHT22;66330;52.166;9.978;2023-11-19T19:27:54;12.90;77.20
77277;DHT22;66330;52.166;9.978;2023-11-19T19:30:19;13.30;77.40
77277;DHT22;66330;52.166;9.978;2023-11-19T19:32:46;13.30;77.10
77277;DHT22;66330;52.166;9.978;2023-11-19T19:35:11;13.20;76.90
77277;DHT22;66330;52.166;9.978;2023-11-19T19:37:37;13.70;77.20
77277;DHT22;66330;52.166;9.978;2023-11-19T19:40:03;13.60;76.90
77277;DHT22;66330;52.166;9.978;2023-11-19T19:42:29;13.10;76.20
77277;DHT22;66330;52.166;9.978;2023-11-19T19:44:55;13.60;76.50
77277;DHT22;66330;52.166;9.978;2023-11-19T19:47:21;13.70;76.60
77277;DHT22;66330;52.166;9.978;2023-11-19T19:49:47;13.50;76.30
77277;DHT22;66330;52.166;9.978;2023-11-19T19:52:12;13.60;76.30
77277;DHT22;66330;52.166;9.978;2023-11-19T19:54:38;13.60;76.20
77277;DHT22;66330;52.166;9.978;2023-11-19T19:57:04;13.80;76.50
77277;DHT22;66330;52.166;9.978;2023-11-19T19:59:29;13.20;75.90
77277;DHT22;66330;52.166;9.978;2023-11-19T20:01:55;13.50;76.30
77277;DHT22;66330;52.166;9.978;2023-11-19T20:04:20;13.70;76.60
77277;DHT22;66330;52.166;9.978;2023-11-19T20:06:46;13.70;76.60
77277;DHT22;66330;52.166;9.978;2023-11-19T20:09:13;13.30;76.20
77277;DHT22;66330;52.166;9.978;2023-11-19T20:11:39;13.20;76.10
77277;DHT22;66330;52.166;9.978;2023-11-19T20:14:05;13.50;76.50
77277;DHT22;66330;52.166;9.978;2023-11-19T20:16:31;13.90;77.00
77277;DHT22;66330;52.166;9.978;2023-11-19T20:18:58;13.70;76.90
77277;DHT22;66330;52.166;9.978;2023-11-19T20:21:23;13.80;77.00
77277;DHT22;66330;52.166;9.978;2023-11-19T20:23:50;13.60;76.80
77277;DHT22;66330;52.166;9.978;2023-11-19T20:26:16;13.70;77.00
77277;DHT22;66330;52.166;9.978;2023-11-19T20:28:44;13.30;76.70
77277;DHT22;66330;52.166;9.978;2023-11-19T20:31:11;13.50;76.90
77277;DHT22;66330;52.166;9.978;2023-11-19T20:33:37;13.60;77.10
77277;DHT22;66330;52.166;9.978;2023-11-19T20:36:03;13.30;77.00
77277;DHT22;66330;52.166;9.978;2023-11-19T20:38:31;13.00;76.80
77277;DHT22;66330;52.166;9.978;2023-11-19T20:40:56;13.70;77.80
77277;DHT22;66330;52.166;9.978;2023-11-19T20:43:22;13.10;77.30
77277;DHT22;66330;52.166;9.978;2023-11-19T20:45:48;13.10;77.50
77277;DHT22;66330;52.166;9.978;2023-11-19T20:48:14;13.70;78.20
77277;DHT22;66330;52.166;9.978;2023-11-19T20:50:39;13.30;77.70
77277;DHT22;66330;52.166;9.978;2023-11-19T20:53:06;13.50;78.20
77277;DHT22;66330;52.166;9.978;2023-11-19T20:55:34;13.50;78.30
77277;DHT22;66330;52.166;9.978;2023-11-19T20:57:59;13.50;78.50
77277;DHT22;66330;52.166;9.978;2023-11-19T21:00:25;13.20;78.40
77277;DHT22;66330;52.166;9.978;2023-11-19T21:02:51;13.00;78.50
77277;DHT22;66330;52.166;9.978;2023-11-19T21:05:19;13.10;79.00
77277;DHT22;66330;52.166;9.978;2023-11-19T21:07:45;12.60;78.70
77277;DHT22;66330;52.166;9.978;2023-11-19T21:10:10;13.20;79.80
77277;DHT22;66330;52.166;9.978;2023-11-19T21:12:40;13.00;80.10
77277;DHT22;66330;52.166;9.978;2023-11-19T21:15:07;12.90;80.20
77277;DHT22;66330;52.166;9.978;2023-11-19T21:17:33;12.30;79.70
77277;DHT22;66330;52.166;9.978;2023-11-19T21:19:58;12.80;80.90
77277;DHT22;66330;52.166;9.978;2023-11-19T21:22:24;12.80;81.20
77277;DHT22;66330;52.166;9.978;2023-11-19T21:24:49;12.50;81.20
77277;DHT22;66330;52.166;9.978;2023-11-19T21:27:17;12.50;81.50
77277;DHT22;66330;52.166;9.978;2023-11-19T21:29:43;12.20;81.60
77277;DHT22;66330;52.166;9.978;2023-11-19T21:32:10;12.40;82.10
77277;DHT22;66330;52.166;9.978;2023-11-19T21:34:36;12.50;82.60
77277;DHT22;66330;52.166;9.978;2023-11-19T21:37:02;12.10;82.40
77277;DHT22;66330;52.166;9.978;2023-11-19T21:39:29;12.30;82.90
77277;DHT22;66330;52.166;9.978;2023-11-19T21:41:55;11.90;82.60
77277;DHT22;66330;52.166;9.978;2023-11-19T21:44:22;12.30;83.30
77277;DHT22;66330;52.166;9.978;2023-11-19T21:46:47;12.20;83.70
77277;DHT22;66330;52.166;9.978;2023-11-19T21:49:13;12.30;83.90
77277;DHT22;66330;52.166;9.978;2023-11-19T21:51:42;12.10;84.00
77277;DHT22;66330;52.166;9.978;2023-11-19T21:54:08;12.30;85.20
77277;DHT22;66330;52.166;9.978;2023-11-19T21:56:34;11.60;84.00
77277;DHT22;66330;52.166;9.978;2023-11-19T21:59:01;12.10;85.00
77277;DHT22;66330;52.166;9.978;2023-11-19T22:01:26;11.70;84.80
77277;DHT22;66330;52.166;9.978;2023-11-19T22:03:52;11.90;85.40
77277;DHT22;66330;52.166;9.978;2023-11-19T22:06:18;11.70;85.40
77277;DHT22;66330;52.166;9.978;2023-11-19T22:08:44;11.60;85.80
77277;DHT22;66330;52.166;9.978;2023-11-19T22:11:10;11.90;86.60
77277;DHT22;66330;52.166;9.978;2023-11-19T22:13:36;12.00;87.00
77277;DHT22;66330;52.166;9.978;2023-11-19T22:16:04;11.50;86.60
77277;DHT22;66330;52.166;9.978;2023-11-19T22:18:30;12.00;87.20
77277;DHT22;66330;52.166;9.978;2023-11-19T22:20:55;11.50;86.70
77277;DHT22;66330;52.166;9.978;2023-11-19T22:23:21;11.90;87.40
77277;DHT22;66330;52.166;9.978;2023-11-19T22:25:47;11.90;87.60
77277;DHT22;66330;52.166;9.978;2023-11-19T22:28:13;12.10;87.90
77277;DHT22;66330;52.166;9.978;2023-11-19T22:30:39;11.90;87.80
77277;DHT22;66330;52.166;9.978;2023-11-19T22:33:06;11.80;88.50
77277;DHT22;66330;52.166;9.978;2023-11-19T22:35:33;12.10;88.30
77277;DHT22;66330;52.166;9.978;2023-11-19T22:37:59;11.60;87.80
77277;DHT22;66330;52.166;9.978;2023-11-19T22:40:24;11.50;87.70
77277;DHT22;66330;52.166;9.978;2023-11-19T22:42:50;11.90;88.40
77277;DHT22;66330;52.166;9.978;2023-11-19T22:45:15;11.80;88.00
77277;DHT22;66330;52.166;9.978;2023-11-19T22:47:42;11.90;88.50
77277;DHT22;66330;52.166;9.978;2023-11-19T22:50:08;11.90;88.80
77277;DHT22;66330;52.166;9.978;2023-11-19T22:52:35;12.00;89.00
77277;DHT22;66330;52.166;9.978;2023-11-19T22:55:01;11.30;88.20
77277;DHT22;66330;52.166;9.978;2023-11-19T22:57:27;12.00;89.00
77277;DHT22;66330;52.166;9.978;2023-11-19T22:59:53;11.60;88.70
77277;DHT22;66330;52.166;9.978;2023-11-19T23:02:19;11.50;88.80
77277;DHT22;66330;52.166;9.978;2023-11-19T23:04:44;11.70;89.30
77277;DHT22;66330;52.166;9.978;2023-11-19T23:07:10;12.20;89.90
77277;DHT22;66330;52.166;9.978;2023-11-19T23:09:35;12.20;89.90
77277;DHT22;66330;52.166;9.978;2023-11-19T23:12:01;11.40;89.10
77277;DHT22;66330;52.166;9.978;2023-11-19T23:14:26;12.00;89.80
77277;DHT22;66330;52.166;9.978;2023-11-19T23:16:52;12.10;89.90
77277;DHT22;66330;52.166;9.978;2023-11-19T23:19:18;12.00;89.90
77277;DHT22;66330;52.166;9.978;2023-11-19T23:21:44;12.10;90.00
77277;DHT22;66330;52.166;9.978;2023-11-19T23:24:10;12.00;90.30
77277;DHT22;66330;52.166;9.978;2023-11-19T23:26:36;12.00;90.00
77277;DHT22;66330;52.166;9.978;2023-11-19T23:29:02;12.00;90.00
77277;DHT22;66330;52.166;9.978;2023-11-19T23:31:30;12.10;90.20
77277;DHT22;66330;52.166;9.978;2023-11-19T23:33:56;12.10;90.30
77277;DHT22;66330;52.166;9.978;2023-11-19T23:36:21;12.00;90.20
77277;DHT22;66330;52.166;9.978;2023-11-19T23:38:47;12.20;90.30
77277;DHT22;66330;52.166;9.978;2023-11-19T23:41:12;11.70;90.00
77277;DHT22;66330;52.166;9.978;2023-11-19T23:43:38;12.10;90.30
77277;DHT22;66330;52.166;9.978;2023-11-19T23:46:04;12.00;90.20
77277;DHT22;66330;52.166;9.978;2023-11-19T23:48:31;11.70;90.00
77277;DHT22;66330;52.166;9.978;2023-11-19T23:50:56;11.80;90.00
77277;DHT22;66330;52.166;9.978;2023-11-19T23:53:22;12.30;90.20
77277;DHT22;66330;52.166;9.978;2023-11-19T23:55:48;12.30;90.30
77277;DHT22;66330;52.166;9.978;2023-11-19T23:58:13;12.40;90.30
